createdAt,value
2022-08-19T00:01:53.014Z,21.77
2022-08-19T00:06:58.023Z,21.79
2022-08-19T00:12:02.035Z,21.81
2022-08-19T00:17:07.786Z,21.83
2022-08-19T00:22:11.217Z,21.84
2022-08-19T00:27:26.060Z,21.84
2022-08-19T00:32:30.958Z,21.81
2022-08-19T00:37:35.896Z,21.78
2022-08-19T00:42:39.923Z,21.74
2022-08-19T00:47:43.078Z,21.70
2022-08-19T00:52:50.232Z,21.67
2022-08-19T00:57:57.586Z,21.62
2022-08-19T01:03:00.992Z,21.55
2022-08-19T01:08:06.454Z,21.47
2022-08-19T01:13:11.730Z,21.39
2022-08-19T01:18:18.219Z,21.32
2022-08-19T01:23:21.669Z,21.23
2022-08-19T01:28:34.028Z,21.17
2022-08-19T01:33:43.794Z,21.11
2022-08-19T01:38:47.593Z,21.06
2022-08-19T01:44:13.746Z,21.01
2022-08-19T01:49:18.397Z,20.95
2022-08-19T01:54:27.906Z,20.89
2022-08-19T01:59:32.358Z,20.83
2022-08-19T02:04:36.488Z,20.77
2022-08-19T02:09:39.696Z,20.71
2022-08-19T02:14:43.520Z,20.66
2022-08-19T02:19:46.830Z,20.61
2022-08-19T02:24:50.448Z,20.57
2022-08-19T02:29:54.551Z,20.52
2022-08-19T02:34:57.992Z,20.47
2022-08-19T02:40:01.490Z,20.44
2022-08-19T02:45:06.333Z,20.41
2022-08-19T02:50:10.311Z,20.39
2022-08-19T02:55:13.693Z,20.37
2022-08-19T03:00:17.822Z,20.37
2022-08-19T03:05:45.967Z,20.37
2022-08-19T03:10:47.466Z,20.37
2022-08-19T03:15:50.835Z,20.38
2022-08-19T03:20:55.727Z,20.39
2022-08-19T03:26:15.575Z,20.36
2022-08-19T03:31:43.730Z,20.33
2022-08-19T03:36:48.379Z,20.31
2022-08-19T03:42:38.082Z,20.30
2022-08-19T03:47:18.119Z,20.30
2022-08-19T03:52:21.356Z,20.32
2022-08-19T03:57:31.996Z,20.37
2022-08-19T04:02:35.661Z,20.44
2022-08-19T04:07:39.373Z,20.57
2022-08-19T04:12:42.991Z,20.76
2022-08-19T04:17:46.610Z,21.41
2022-08-19T04:22:50.177Z,22.48
2022-08-19T04:27:53.641Z,23.74
2022-08-19T04:32:57.259Z,24.98
2022-08-19T04:38:00.576Z,26.08
2022-08-19T04:43:04.291Z,26.58
2022-08-19T04:48:26.933Z,26.73
2022-08-19T04:53:34.678Z,26.96
2022-08-19T04:58:43.826Z,27.53
2022-08-19T05:03:47.434Z,28.40
2022-08-19T05:08:51.363Z,29.00
2022-08-19T05:13:55.387Z,29.33
2022-08-19T05:19:17.336Z,29.56
2022-08-19T05:24:22.342Z,29.43
2022-08-19T05:29:28.460Z,29.49
2022-08-19T05:34:40.482Z,30.37
2022-08-19T05:39:46.483Z,31.01
2022-08-19T05:44:52.936Z,30.83
2022-08-19T05:49:56.247Z,30.74
2022-08-19T05:54:59.703Z,30.59
2022-08-19T06:00:04.357Z,30.52
2022-08-19T06:05:10.700Z,30.35
2022-08-19T06:10:15.022Z,30.24
2022-08-19T06:15:19.301Z,30.67
2022-08-19T06:20:52.296Z,31.27
2022-08-19T06:25:46.669Z,32.41
2022-08-19T06:30:49.915Z,33.18
2022-08-19T06:35:53.594Z,33.85
2022-08-19T06:41:07.964Z,34.62
2022-08-19T06:46:14.676Z,35.57
2022-08-19T06:51:21.856Z,36.08
2022-08-19T06:56:36.127Z,36.45
2022-08-19T07:01:42.811Z,36.34
2022-08-19T07:06:46.563Z,35.95
2022-08-19T07:11:59.059Z,36.11
2022-08-19T07:17:03.507Z,36.88
2022-08-19T07:22:10.031Z,37.04
2022-08-19T07:27:17.287Z,37.17
2022-08-19T07:32:20.599Z,37.41
2022-08-19T07:37:32.467Z,37.68
2022-08-19T07:42:36.741Z,37.39
2022-08-19T07:47:49.962Z,36.58
2022-08-19T07:52:54.625Z,36.27
2022-08-19T07:57:58.350Z,35.82
2022-08-19T08:03:01.760Z,35.94
2022-08-19T08:08:23.606Z,36.69
2022-08-19T08:13:31.220Z,36.78
2022-08-19T08:18:42.926Z,36.70
2022-08-19T08:23:46.220Z,36.82
2022-08-19T08:28:49.959Z,36.40
2022-08-19T08:33:53.579Z,35.88
2022-08-19T08:44:06.037Z,36.27
2022-08-19T08:49:13.237Z,36.86
2022-08-19T08:54:21.258Z,37.41
2022-08-19T08:59:33.374Z,37.55
2022-08-19T09:04:40.374Z,37.33
2022-08-19T09:09:49.805Z,36.70
2022-08-19T09:15:08.349Z,36.40
2022-08-19T09:20:21.027Z,36.68
2022-08-19T09:25:27.090Z,36.68
2022-08-19T09:30:36.147Z,36.86
2022-08-19T09:35:50.039Z,36.52
2022-08-19T09:40:56.902Z,35.90
2022-08-19T09:46:03.284Z,35.31
2022-08-19T09:51:12.950Z,34.78
2022-08-19T09:56:16.254Z,34.61
2022-08-19T10:01:25.970Z,34.42
2022-08-19T10:06:45.784Z,34.35
2022-08-19T10:11:54.787Z,34.33
2022-08-19T10:16:59.114Z,34.07
2022-08-19T10:22:10.171Z,33.95
2022-08-19T10:27:16.187Z,33.49
2022-08-19T10:32:19.883Z,33.23
2022-08-19T10:37:44.951Z,33.20
2022-08-19T10:43:00.702Z,33.28
2022-08-19T10:48:04.533Z,33.31
2022-08-19T10:53:09.982Z,33.16
2022-08-19T10:58:23.482Z,33.01
2022-08-19T11:03:30.637Z,32.92
2022-08-19T11:08:36.023Z,32.99
2022-08-19T11:13:42.194Z,32.77
2022-08-19T11:18:49.582Z,32.57
2022-08-19T11:23:56.784Z,32.51
2022-08-19T11:29:01.937Z,32.48
2022-08-19T11:34:08.321Z,32.58
2022-08-19T11:39:14.352Z,32.87
2022-08-19T11:44:17.808Z,33.00
2022-08-19T11:49:22.553Z,33.11
2022-08-19T11:54:26.579Z,33.19
2022-08-19T11:59:30.711Z,33.14
2022-08-19T12:04:34.021Z,33.01
2022-08-19T12:09:37.537Z,32.84
2022-08-19T12:14:47.711Z,32.73
2022-08-19T12:19:51.024Z,32.64
2022-08-19T12:24:54.984Z,32.63
2022-08-19T12:29:58.466Z,32.66
2022-08-19T12:35:02.385Z,32.79
2022-08-19T12:40:08.055Z,32.83
2022-08-19T12:45:14.680Z,32.85
2022-08-19T12:50:18.161Z,32.69
2022-08-19T12:55:21.617Z,32.61
2022-08-19T13:00:25.085Z,32.73
2022-08-19T13:05:32.802Z,32.90
2022-08-19T13:10:37.715Z,33.02
2022-08-19T13:15:43.947Z,33.00
2022-08-19T13:20:52.847Z,32.77
2022-08-19T13:26:01.301Z,32.59
2022-08-19T13:31:23.459Z,32.49
2022-08-19T13:36:26.868Z,32.45
2022-08-19T13:41:32.127Z,32.60
2022-08-19T13:46:35.744Z,32.72
2022-08-19T13:51:43.617Z,32.76
2022-08-19T13:56:47.077Z,32.80
2022-08-19T14:01:51.355Z,32.79
2022-08-19T14:06:54.825Z,32.70
2022-08-19T14:11:58.851Z,32.59
2022-08-19T14:17:02.371Z,32.44
2022-08-19T14:22:06.703Z,32.41
2022-08-19T14:27:10.740Z,32.46
2022-08-19T14:32:16.633Z,32.46
2022-08-19T14:37:21.089Z,32.40
2022-08-19T14:42:24.656Z,32.31
2022-08-19T14:47:29.227Z,32.25
2022-08-19T14:52:37.691Z,32.26
2022-08-19T14:57:42.728Z,32.29
2022-08-19T15:02:46.194Z,32.48
2022-08-19T15:07:49.711Z,32.67
2022-08-19T15:12:54.456Z,32.79
2022-08-19T15:18:03.608Z,32.83
2022-08-19T15:23:07.527Z,32.74
2022-08-19T15:28:17.509Z,32.62
2022-08-19T15:33:21.630Z,32.48
2022-08-19T15:38:27.190Z,32.40
2022-08-19T15:43:30.706Z,32.29
2022-08-19T15:48:33.914Z,32.16
2022-08-19T15:53:37.233Z,32.02
2022-08-19T15:58:59.482Z,31.92
2022-08-19T16:04:21.529Z,31.86
2022-08-19T16:09:29.403Z,31.81
2022-08-19T16:14:35.435Z,31.76
2022-08-19T16:19:39.044Z,31.71
2022-08-19T16:24:43.289Z,31.57
2022-08-19T16:29:46.580Z,31.41
2022-08-19T16:34:50.105Z,31.29
2022-08-19T16:39:54.801Z,31.20
2022-08-19T16:44:58.029Z,31.11
2022-08-19T16:50:01.305Z,31.01
2022-08-19T16:55:07.221Z,30.90
2022-08-19T17:00:14.756Z,30.78
2022-08-19T17:05:19.434Z,30.64
2022-08-19T17:10:24.076Z,30.48
2022-08-19T17:15:27.787Z,30.32
2022-08-19T17:20:32.492Z,30.13
2022-08-19T17:25:38.369Z,29.98
2022-08-19T17:30:42.254Z,29.83
2022-08-19T17:35:47.099Z,29.65
2022-08-19T17:40:51.065Z,29.51
2022-08-19T17:45:55.504Z,29.37
2022-08-19T17:51:00.736Z,29.24
2022-08-19T17:56:04.271Z,29.12
2022-08-19T18:01:12.868Z,29.00
2022-08-19T18:06:17.451Z,28.85
2022-08-19T18:11:21.373Z,28.75
2022-08-19T18:16:27.073Z,28.62
2022-08-19T18:21:32.422Z,28.49
2022-08-19T18:26:35.911Z,28.37
2022-08-19T18:31:40.300Z,28.31
2022-08-19T18:36:53.874Z,28.26
2022-08-19T18:42:16.570Z,28.18
2022-08-19T18:47:39.230Z,28.09
2022-08-19T18:52:44.236Z,28.03
2022-08-19T18:57:49.130Z,28.01
2022-08-19T19:02:56.074Z,28.01
2022-08-19T19:08:00.795Z,27.98
2022-08-19T19:13:04.403Z,27.92
2022-08-19T19:18:09.037Z,27.83
2022-08-19T19:23:12.544Z,27.68
2022-08-19T19:28:16.799Z,27.49
2022-08-19T19:33:20.703Z,27.32
2022-08-19T19:38:26.420Z,27.21
2022-08-19T19:43:40.764Z,27.13
2022-08-19T19:48:46.874Z,27.06
2022-08-19T19:53:51.563Z,27.06
2022-08-19T19:58:54.821Z,27.00
2022-08-19T20:04:01.971Z,26.95
2022-08-19T20:09:08.499Z,26.91
2022-08-19T20:14:18.108Z,26.89
2022-08-19T20:19:26.278Z,26.88
2022-08-19T20:24:36.525Z,26.89
2022-08-19T20:29:44.188Z,26.91
2022-08-19T20:34:49.483Z,26.92
2022-08-19T20:39:52.895Z,26.93
2022-08-19T20:44:56.824Z,26.91
2022-08-19T20:50:00.339Z,26.88
2022-08-19T20:55:07.111Z,26.84
2022-08-19T21:00:13.103Z,26.81
2022-08-19T21:05:17.642Z,26.78
2022-08-19T21:10:21.568Z,26.75
2022-08-19T21:15:25.723Z,26.71
2022-08-19T21:20:29.320Z,26.70
2022-08-19T21:25:33.339Z,26.69
2022-08-19T21:30:37.222Z,26.71
2022-08-19T21:35:40.685Z,26.70
2022-08-19T21:40:44.235Z,26.69
2022-08-19T21:45:48.534Z,26.69
2022-08-19T21:50:51.785Z,26.68
2022-08-19T21:55:55.007Z,26.65
2022-08-19T22:01:06.321Z,26.60
2022-08-19T22:06:10.318Z,26.54
2022-08-19T22:11:13.944Z,26.50
2022-08-19T22:16:18.495Z,26.47
2022-08-19T22:21:40.360Z,26.46
2022-08-19T22:26:44.643Z,26.43
2022-08-19T22:31:54.286Z,26.38
2022-08-19T22:36:58.301Z,26.34
2022-08-19T22:42:02.235Z,26.29
2022-08-19T22:47:05.748Z,26.26
2022-08-19T22:52:17.843Z,26.20
2022-08-19T22:57:22.033Z,26.12
2022-08-19T23:02:32.269Z,26.03
2022-08-19T23:07:35.582Z,25.93
2022-08-19T23:12:44.460Z,25.89
2022-08-19T23:17:48.242Z,25.83
2022-08-19T23:22:51.858Z,25.74
2022-08-19T23:28:14.419Z,25.63
2022-08-19T23:33:25.121Z,25.48
2022-08-19T23:38:32.336Z,25.32
2022-08-19T23:43:36.886Z,25.18
2022-08-19T23:48:43.229Z,25.06
2022-08-19T23:53:46.540Z,24.91
2022-08-19T23:58:49.850Z,24.74
